createdAt,value
2024-05-09T00:00:39.197Z,18.82
2024-05-09T00:03:08.405Z,18.79
2024-05-09T00:05:36.935Z,18.71
2024-05-09T00:08:04.414Z,18.59
2024-05-09T00:10:36.444Z,18.57
2024-05-09T00:13:06.436Z,18.51
2024-05-09T00:15:33.974Z,18.32
2024-05-09T00:18:01.737Z,18.42
2024-05-09T00:20:36.839Z,18.38
2024-05-09T00:23:07.506Z,18.37
2024-05-09T00:25:35.270Z,18.45
2024-05-09T00:28:02.661Z,18.43
2024-05-09T00:30:34.443Z,18.51
2024-05-09T00:33:08.718Z,18.48
2024-05-09T00:35:36.951Z,18.52
2024-05-09T00:38:04.224Z,18.48
2024-05-09T00:40:41.630Z,18.53
2024-05-09T00:43:11.396Z,18.56
2024-05-09T00:45:38.654Z,18.44
2024-05-09T00:48:08.491Z,18.42
2024-05-09T00:50:40.189Z,18.35
2024-05-09T00:53:09.864Z,18.19
2024-05-09T00:55:37.767Z,18.23
2024-05-09T00:58:05.979Z,18.02
2024-05-09T01:00:38.911Z,18.02
2024-05-09T01:03:10.033Z,17.95
2024-05-09T01:05:39.317Z,17.99
2024-05-09T01:08:07.091Z,17.99
2024-05-09T01:10:35.533Z,17.92
2024-05-09T01:13:04.110Z,17.92
2024-05-09T01:15:30.975Z,17.84
2024-05-09T01:17:58.909Z,17.71
2024-05-09T01:20:36.854Z,17.73
2024-05-09T01:23:09.848Z,17.74
2024-05-09T01:25:37.521Z,17.72
2024-05-09T01:28:04.605Z,17.68
2024-05-09T01:30:35.148Z,17.65
2024-05-09T01:33:06.582Z,17.52
2024-05-09T01:35:35.015Z,17.49
2024-05-09T01:38:01.946Z,17.54
2024-05-09T01:40:36.667Z,17.51
2024-05-09T01:43:06.983Z,17.47
2024-05-09T01:45:33.948Z,17.46
2024-05-09T01:48:01.126Z,17.44
2024-05-09T01:50:37.711Z,17.49
2024-05-09T01:53:09.217Z,17.46
2024-05-09T01:55:36.293Z,17.36
2024-05-09T01:58:03.076Z,17.37
2024-05-09T02:00:38.391Z,17.37
2024-05-09T02:03:10.707Z,17.34
2024-05-09T02:05:39.421Z,17.40
2024-05-09T02:08:06.981Z,17.23
2024-05-09T02:10:33.889Z,17.24
2024-05-09T02:13:01.030Z,17.24
2024-05-09T02:15:27.858Z,17.25
2024-05-09T02:17:54.742Z,17.22
2024-05-09T02:22:51.281Z,17.17
2024-05-09T02:25:18.006Z,17.08
2024-05-09T02:27:44.707Z,17.11
2024-05-09T02:30:18.815Z,17.05
2024-05-09T02:32:53.033Z,17.05
2024-05-09T02:35:19.801Z,17.01
2024-05-09T02:37:46.562Z,17.06
2024-05-09T02:40:15.009Z,17.02
2024-05-09T02:42:48.105Z,17.02
2024-05-09T02:45:14.806Z,17.02
2024-05-09T02:47:41.556Z,16.94
2024-05-09T02:50:08.487Z,16.91
2024-05-09T02:52:35.243Z,16.86
2024-05-09T02:55:02.173Z,16.90
2024-05-09T02:57:28.873Z,16.84
2024-05-09T02:59:55.600Z,16.84
2024-05-09T03:02:22.497Z,16.78
2024-05-09T03:04:49.526Z,16.74
2024-05-09T03:07:17.837Z,16.59
2024-05-09T03:09:47.098Z,16.64
2024-05-09T03:12:13.946Z,16.75
2024-05-09T03:14:40.800Z,16.65
2024-05-09T03:17:07.755Z,16.53
2024-05-09T03:19:37.686Z,16.58
2024-05-09T03:22:04.593Z,16.57
2024-05-09T03:24:31.307Z,16.55
2024-05-09T03:26:58.004Z,16.55
2024-05-09T03:29:24.833Z,16.50
2024-05-09T03:31:51.699Z,16.48
2024-05-09T03:34:18.481Z,16.57
2024-05-09T03:36:45.609Z,16.48
2024-05-09T03:39:12.371Z,16.44
2024-05-09T03:41:39.275Z,16.50
2024-05-09T03:44:06.143Z,16.53
2024-05-09T03:46:37.684Z,16.56
2024-05-09T03:49:04.781Z,16.59
2024-05-09T03:51:31.906Z,16.56
2024-05-09T03:53:58.717Z,16.62
2024-05-09T03:56:25.969Z,16.48
2024-05-09T03:58:52.731Z,16.56
2024-05-09T04:01:19.597Z,16.56
2024-05-09T04:03:46.558Z,16.57
2024-05-09T04:06:23.290Z,16.62
2024-05-09T04:08:50.070Z,16.64
2024-05-09T04:11:17.880Z,16.65
2024-05-09T04:13:44.872Z,16.70
2024-05-09T04:16:11.800Z,16.62
2024-05-09T04:18:38.602Z,16.63
2024-05-09T04:21:06.400Z,16.64
2024-05-09T04:23:33.241Z,16.77
2024-05-09T04:26:04.224Z,16.80
2024-05-09T04:28:30.963Z,16.80
2024-05-09T04:30:57.709Z,16.85
2024-05-09T04:33:24.747Z,16.91
2024-05-09T04:35:52.211Z,16.92
2024-05-09T04:38:19.127Z,16.95
2024-05-09T04:40:45.974Z,17.08
2024-05-09T04:43:18.922Z,17.06
2024-05-09T04:45:46.140Z,17.08
2024-05-09T04:48:13.329Z,17.08
2024-05-09T04:50:40.477Z,17.15
2024-05-09T04:53:09.841Z,17.31
2024-05-09T04:55:37.986Z,17.49
2024-05-09T04:58:06.845Z,17.58
2024-05-09T05:00:37.193Z,17.68
2024-05-09T05:03:30.990Z,17.76
2024-05-09T05:05:58.112Z,17.84
2024-05-09T05:08:25.205Z,17.83
2024-05-09T05:10:52.974Z,17.91
2024-05-09T05:13:21.369Z,18.10
2024-05-09T05:15:50.879Z,18.20
2024-05-09T05:18:18.266Z,18.28
2024-05-09T05:20:45.718Z,18.22
2024-05-09T05:23:14.945Z,18.38
2024-05-09T05:25:42.534Z,18.45
2024-05-09T05:28:09.515Z,18.87
2024-05-09T05:30:38.059Z,19.11
2024-05-09T05:33:06.144Z,19.03
2024-05-09T05:35:34.438Z,19.35
2024-05-09T05:38:01.761Z,19.63
2024-05-09T05:40:36.135Z,19.86
2024-05-09T05:43:25.434Z,19.96
2024-05-09T05:45:52.141Z,20.50
2024-05-09T05:48:19.270Z,20.80
2024-05-09T05:50:46.431Z,20.83
2024-05-09T05:53:13.412Z,21.06
2024-05-09T05:55:41.224Z,21.58
2024-05-09T05:58:12.181Z,21.83
2024-05-09T06:00:41.463Z,22.11
2024-05-09T06:03:10.358Z,22.68
2024-05-09T06:05:40.143Z,22.54
2024-05-09T06:08:07.744Z,22.75
2024-05-09T06:10:38.949Z,23.09
2024-05-09T06:13:10.368Z,23.35
2024-05-09T06:15:37.127Z,23.66
2024-05-09T06:18:06.361Z,24.22
2024-05-09T06:20:36.536Z,24.34
2024-05-09T06:23:06.341Z,24.30
2024-05-09T06:25:33.857Z,23.96
2024-05-09T06:28:00.965Z,24.51
2024-05-09T06:30:36.796Z,25.04
2024-05-09T06:33:10.244Z,25.48
2024-05-09T06:35:38.608Z,25.83
2024-05-09T06:38:08.671Z,26.01
2024-05-09T06:40:38.627Z,26.30
2024-05-09T06:43:14.016Z,26.72
2024-05-09T06:45:41.174Z,27.36
2024-05-09T06:48:09.137Z,28.04
2024-05-09T06:50:38.324Z,28.43
2024-05-09T06:53:06.886Z,28.77
2024-05-09T06:55:33.827Z,29.25
2024-05-09T06:58:00.589Z,29.54
2024-05-09T07:00:35.153Z,29.91
2024-05-09T07:03:15.874Z,30.26
2024-05-09T07:05:45.056Z,30.54
2024-05-09T07:08:13.431Z,30.86
2024-05-09T07:10:40.307Z,31.42
2024-05-09T07:13:09.058Z,31.62
2024-05-09T07:15:35.786Z,31.83
2024-05-09T07:18:11.233Z,32.17
2024-05-09T07:20:39.760Z,32.62
2024-05-09T07:23:09.957Z,32.69
2024-05-09T07:25:37.090Z,32.85
2024-05-09T07:28:04.056Z,32.61
2024-05-09T07:30:34.085Z,32.91
2024-05-09T07:33:03.049Z,32.68
2024-05-09T07:35:31.047Z,32.88
2024-05-09T07:37:58.354Z,33.39
2024-05-09T07:40:32.920Z,33.53
2024-05-09T07:43:07.416Z,34.08
2024-05-09T07:52:23.926Z,33.68
2024-05-09T07:53:39.300Z,34.03
2024-05-09T07:56:10.122Z,34.48
2024-05-09T07:58:37.796Z,34.64
2024-05-09T08:01:05.118Z,34.83
2024-05-09T08:03:34.132Z,34.94
2024-05-09T08:06:01.130Z,34.97
2024-05-09T08:08:27.836Z,35.01
2024-05-09T08:10:54.716Z,35.28
2024-05-09T08:13:21.514Z,35.44
2024-05-09T08:15:48.811Z,35.50
2024-05-09T08:18:15.989Z,35.46
2024-05-09T08:20:42.884Z,35.56
2024-05-09T08:23:11.103Z,36.00
2024-05-09T08:25:38.730Z,35.88
2024-05-09T08:28:05.847Z,35.46
2024-05-09T08:30:36.616Z,34.88
2024-05-09T08:33:06.085Z,34.76
2024-05-09T08:35:33.478Z,34.96
2024-05-09T08:38:02.830Z,35.04
2024-05-09T08:40:35.422Z,34.56
2024-05-09T08:43:07.770Z,34.60
2024-05-09T08:45:36.071Z,34.30
2024-05-09T08:48:05.849Z,34.65
2024-05-09T08:50:38.732Z,34.83
2024-05-09T08:53:07.623Z,34.83
2024-05-09T08:55:37.396Z,34.96
2024-05-09T08:58:07.566Z,34.43
2024-05-09T09:00:37.427Z,33.97
2024-05-09T09:03:09.132Z,33.76
2024-05-09T09:05:38.805Z,33.50
2024-05-09T09:08:09.062Z,32.98
2024-05-09T09:10:39.567Z,32.61
2024-05-09T09:13:09.553Z,32.87
2024-05-09T09:15:47.646Z,33.02
2024-05-09T09:18:16.092Z,32.99
2024-05-09T09:20:43.965Z,33.09
2024-05-09T09:23:10.771Z,32.62
2024-05-09T09:25:41.545Z,31.94
2024-05-09T09:28:09.255Z,32.32
2024-05-09T09:30:42.950Z,32.17
2024-05-09T09:33:10.640Z,32.83
2024-05-09T09:35:39.842Z,32.82
2024-05-09T09:38:07.655Z,33.03
2024-05-09T09:40:38.933Z,33.23
2024-05-09T09:43:14.779Z,33.34
2024-05-09T09:45:44.172Z,33.31
2024-05-09T09:48:14.629Z,33.34
2024-05-09T09:50:41.907Z,32.91
2024-05-09T09:53:10.214Z,32.60
2024-05-09T09:55:38.539Z,32.71
2024-05-09T09:58:08.767Z,32.42
2024-05-09T10:00:37.991Z,32.94
2024-05-09T10:03:05.301Z,32.92
2024-05-09T10:05:34.160Z,32.88
2024-05-09T10:08:06.805Z,32.89
2024-05-09T10:10:36.177Z,33.24
2024-05-09T10:13:04.640Z,33.24
2024-05-09T10:15:45.292Z,33.13
2024-05-09T10:18:12.393Z,33.05
2024-05-09T10:20:46.469Z,33.12
2024-05-09T10:23:26.945Z,32.73
2024-05-09T10:26:04.627Z,32.88
2024-05-09T10:28:33.187Z,32.94
2024-05-09T10:31:03.219Z,33.00
2024-05-09T10:33:39.945Z,33.14
2024-05-09T10:36:25.979Z,33.02
2024-05-09T10:38:53.997Z,32.06
2024-05-09T10:41:22.102Z,32.31
2024-05-09T10:43:49.443Z,32.82
2024-05-09T10:46:16.851Z,32.32
2024-05-09T10:48:44.562Z,32.05
2024-05-09T10:51:11.906Z,32.40
2024-05-09T10:53:43.511Z,32.40
2024-05-09T10:56:11.064Z,32.72
2024-05-09T10:58:37.846Z,31.99
2024-05-09T11:01:07.027Z,32.10
2024-05-09T11:03:34.882Z,32.78
2024-05-09T11:06:02.050Z,32.00
2024-05-09T11:08:30.530Z,32.24
2024-05-09T11:10:59.367Z,32.23
2024-05-09T11:13:30.122Z,31.99
2024-05-09T11:15:57.154Z,32.04
2024-05-09T11:18:26.759Z,32.05
2024-05-09T11:20:56.168Z,32.40
2024-05-09T11:23:27.329Z,32.88
2024-05-09T11:25:55.859Z,32.04
2024-05-09T11:28:23.701Z,31.73
2024-05-09T11:30:50.940Z,31.75
2024-05-09T11:33:20.533Z,32.12
2024-05-09T11:35:47.443Z,31.83
2024-05-09T11:38:14.294Z,31.58
2024-05-09T11:40:41.719Z,32.22
2024-05-09T11:43:08.688Z,32.14
2024-05-09T11:45:35.439Z,32.11
2024-05-09T11:48:03.648Z,32.00
2024-05-09T11:50:35.208Z,32.73
2024-05-09T11:53:03.001Z,33.03
2024-05-09T11:55:30.583Z,32.45
2024-05-09T11:57:57.621Z,32.20
2024-05-09T12:00:33.874Z,31.72
2024-05-09T12:03:05.348Z,31.95
2024-05-09T12:05:34.148Z,31.33
2024-05-09T12:08:01.554Z,32.27
2024-05-09T12:10:33.467Z,31.88
2024-05-09T12:13:04.740Z,32.52
2024-05-09T12:15:33.972Z,32.91
2024-05-09T12:18:03.419Z,32.76
2024-05-09T12:20:36.843Z,32.62
2024-05-09T12:23:06.477Z,32.22
2024-05-09T12:25:33.405Z,32.17
2024-05-09T12:28:00.629Z,32.39
2024-05-09T12:30:36.009Z,33.11
2024-05-09T12:33:07.665Z,32.78
2024-05-09T12:35:34.718Z,32.48
2024-05-09T12:38:01.525Z,31.97
2024-05-09T12:40:35.620Z,32.62
2024-05-09T12:43:06.972Z,33.13
2024-05-09T12:45:34.041Z,32.92
2024-05-09T12:48:01.064Z,32.96
2024-05-09T12:50:32.744Z,32.73
2024-05-09T12:53:02.379Z,32.57
2024-05-09T12:55:34.206Z,32.41
2024-05-09T12:58:08.571Z,32.80
2024-05-09T13:00:35.576Z,32.96
2024-05-09T13:03:02.746Z,33.04
2024-05-09T13:05:29.899Z,32.74
2024-05-09T13:07:57.235Z,32.49
2024-05-09T13:10:31.694Z,32.55
2024-05-09T13:13:01.345Z,32.50
2024-05-09T13:15:30.426Z,32.67
2024-05-09T13:18:00.313Z,32.02
2024-05-09T13:20:33.418Z,31.85
2024-05-09T13:23:03.649Z,31.81
2024-05-09T13:25:30.531Z,31.37
2024-05-09T13:27:57.867Z,31.33
2024-05-09T13:30:30.185Z,31.18
2024-05-09T13:33:06.085Z,31.32
2024-05-09T13:35:34.866Z,31.69
2024-05-09T13:38:02.581Z,31.68
2024-05-09T13:40:33.815Z,31.57
2024-05-09T13:43:03.504Z,31.18
2024-05-09T13:45:30.528Z,31.09
2024-05-09T13:47:57.538Z,31.16
2024-05-09T13:50:33.108Z,31.06
2024-05-09T13:53:03.218Z,30.54
2024-05-09T13:55:30.015Z,30.96
2024-05-09T13:57:56.813Z,31.01
2024-05-09T14:00:37.864Z,31.05
2024-05-09T14:03:10.708Z,31.55
2024-05-09T14:05:37.794Z,31.30
2024-05-09T14:08:04.959Z,31.27
2024-05-09T14:10:32.518Z,31.88
2024-05-09T14:13:00.942Z,32.18
2024-05-09T14:15:27.899Z,32.05
2024-05-09T14:17:55.296Z,31.65
2024-05-09T14:20:30.383Z,31.80
2024-05-09T14:22:59.642Z,31.98
2024-05-09T14:25:28.414Z,31.74
2024-05-09T14:27:57.505Z,31.76
2024-05-09T14:30:31.044Z,31.81
2024-05-09T14:33:04.139Z,31.88
2024-05-09T14:35:31.191Z,32.26
2024-05-09T14:37:58.191Z,32.30
2024-05-09T14:40:36.515Z,32.53
2024-05-09T14:43:08.475Z,32.37
2024-05-09T14:45:35.623Z,32.06
2024-05-09T14:48:03.580Z,31.89
2024-05-09T14:50:36.161Z,32.14
2024-05-09T14:53:09.929Z,32.08
2024-05-09T14:55:38.785Z,32.09
2024-05-09T14:58:06.997Z,31.82
2024-05-09T15:00:38.352Z,31.87
2024-05-09T15:03:06.740Z,31.63
2024-05-09T15:05:33.571Z,31.60
2024-05-09T15:08:00.571Z,31.25
2024-05-09T15:10:34.310Z,31.07
2024-05-09T15:13:03.619Z,30.80
2024-05-09T15:15:31.022Z,30.34
2024-05-09T15:17:58.084Z,30.07
2024-05-09T15:20:32.994Z,30.38
2024-05-09T15:23:03.183Z,30.34
2024-05-09T15:25:30.292Z,30.35
2024-05-09T15:27:57.304Z,30.29
2024-05-09T15:30:30.586Z,30.25
2024-05-09T15:33:00.075Z,31.18
2024-05-09T15:35:27.169Z,31.20
2024-05-09T15:37:54.024Z,31.13
2024-05-09T15:40:30.588Z,31.04
2024-05-09T15:43:04.882Z,31.09
2024-05-09T15:45:32.035Z,31.39
2024-05-09T15:47:59.616Z,31.37
2024-05-09T15:50:36.253Z,31.52
2024-05-09T15:53:07.202Z,31.56
2024-05-09T15:55:34.936Z,31.61
2024-05-09T15:58:02.941Z,31.69
2024-05-09T16:00:37.406Z,31.78
2024-05-09T16:03:08.653Z,32.09
2024-05-09T16:05:36.183Z,30.72
2024-05-09T16:08:03.150Z,30.81
2024-05-09T16:10:33.059Z,30.97
2024-05-09T16:13:02.189Z,31.00
2024-05-09T16:15:29.721Z,31.35
2024-05-09T16:17:56.828Z,31.34
2024-05-09T16:22:54.485Z,31.52
2024-05-09T16:25:21.294Z,31.51
2024-05-09T16:27:48.341Z,31.45
2024-05-09T16:30:24.144Z,31.23
2024-05-09T16:32:55.236Z,30.99
2024-05-09T16:35:22.012Z,31.24
2024-05-09T16:37:49.559Z,31.37
2024-05-09T16:40:25.273Z,31.25
2024-05-09T16:43:03.438Z,30.92
2024-05-09T16:45:30.465Z,30.24
2024-05-09T16:48:00.263Z,29.91
2024-05-09T16:50:32.517Z,29.34
2024-05-09T16:53:02.167Z,29.23
2024-05-09T16:55:29.040Z,29.19
2024-05-09T16:57:57.378Z,29.32
2024-05-09T17:00:35.417Z,29.40
2024-05-09T17:03:08.927Z,29.56
2024-05-09T17:05:36.432Z,29.42
2024-05-09T17:08:03.802Z,29.43
2024-05-09T17:10:33.735Z,29.59
2024-05-09T17:13:06.500Z,29.46
2024-05-09T17:15:34.979Z,29.71
2024-05-09T17:18:02.343Z,29.55
2024-05-09T17:20:33.699Z,29.44
2024-05-09T17:23:04.070Z,29.48
2024-05-09T17:25:31.151Z,29.38
2024-05-09T17:28:05.227Z,29.20
2024-05-09T17:30:36.578Z,29.05
2024-05-09T17:33:06.230Z,29.10
2024-05-09T17:35:33.354Z,28.96
2024-05-09T17:38:01.550Z,28.98
2024-05-09T17:40:33.584Z,28.86
2024-05-09T17:43:04.470Z,29.03
2024-05-09T17:45:32.306Z,29.12
2024-05-09T17:47:59.849Z,28.85
2024-05-09T17:50:34.882Z,29.03
2024-05-09T17:53:04.303Z,28.98
2024-05-09T17:55:31.312Z,29.18
2024-05-09T17:57:58.284Z,29.01
2024-05-09T18:00:36.305Z,28.83
2024-05-09T18:03:07.724Z,28.92
2024-05-09T18:05:36.181Z,28.97
2024-05-09T18:08:05.874Z,28.91
2024-05-09T18:10:37.044Z,29.18
2024-05-09T18:13:07.514Z,29.18
2024-05-09T18:15:34.513Z,29.21
2024-05-09T18:18:02.131Z,29.23
2024-05-09T18:20:38.022Z,29.18
2024-05-09T18:23:10.398Z,28.11
2024-05-09T18:25:37.295Z,25.78
2024-05-09T18:28:04.823Z,24.60
2024-05-09T18:30:35.152Z,24.65
2024-05-09T18:33:05.555Z,24.46
2024-05-09T18:35:33.614Z,23.79
2024-05-09T18:38:00.627Z,23.11
2024-05-09T18:40:33.025Z,23.26
2024-05-09T18:43:03.493Z,23.76
2024-05-09T18:45:30.704Z,23.40
2024-05-09T18:47:58.052Z,23.61
2024-05-09T18:50:33.942Z,23.78
2024-05-09T18:53:05.996Z,24.20
2024-05-09T18:55:32.904Z,23.77
2024-05-09T18:57:59.884Z,23.50
2024-05-09T19:00:34.002Z,22.82
2024-05-09T19:03:06.153Z,22.21
2024-05-09T19:05:35.982Z,22.38
2024-05-09T19:08:03.129Z,22.76
2024-05-09T19:10:34.300Z,23.00
2024-05-09T19:13:06.687Z,22.97
2024-05-09T19:15:38.092Z,23.02
2024-05-09T19:18:05.411Z,23.02
2024-05-09T19:20:34.940Z,22.77
2024-05-09T19:23:03.391Z,23.22
2024-05-09T19:25:30.467Z,23.13
2024-05-09T19:27:57.373Z,23.11
2024-05-09T19:30:32.929Z,23.07
2024-05-09T19:33:05.971Z,23.25
2024-05-09T19:35:33.066Z,23.82
2024-05-09T19:38:00.144Z,23.59
2024-05-09T19:40:31.728Z,23.28
2024-05-09T19:43:01.566Z,23.45
2024-05-09T19:45:28.995Z,23.83
2024-05-09T19:47:56.095Z,24.08
2024-05-09T19:50:31.618Z,24.29
2024-05-09T19:53:04.914Z,24.34
2024-05-09T19:55:32.744Z,24.06
2024-05-09T19:58:01.030Z,24.25
2024-05-09T20:00:35.490Z,24.66
2024-05-09T20:03:03.792Z,24.59
2024-05-09T20:05:31.202Z,24.71
2024-05-09T20:07:58.460Z,24.48
2024-05-09T20:10:31.418Z,24.64
2024-05-09T20:13:00.411Z,24.80
2024-05-09T20:15:27.354Z,24.55
2024-05-09T20:17:54.672Z,24.56
2024-05-09T20:20:32.198Z,24.74
2024-05-09T20:23:04.197Z,24.64
2024-05-09T20:25:30.937Z,24.43
2024-05-09T20:27:57.733Z,24.41
2024-05-09T20:30:31.355Z,24.55
2024-05-09T20:33:00.561Z,24.60
2024-05-09T20:35:31.627Z,24.52
2024-05-09T20:37:58.604Z,24.67
2024-05-09T20:40:31.311Z,24.44
2024-05-09T20:43:01.671Z,24.51
2024-05-09T20:45:28.390Z,24.45
2024-05-09T20:47:55.298Z,24.47
2024-05-09T20:50:29.191Z,24.48
2024-05-09T20:53:03.678Z,24.53
2024-05-09T20:55:30.590Z,24.54
2024-05-09T20:57:57.757Z,24.52
2024-05-09T21:00:34.336Z,24.45
2024-05-09T21:03:06.930Z,24.35
2024-05-09T21:05:34.770Z,24.30
2024-05-09T21:08:01.958Z,24.16
2024-05-09T21:10:32.788Z,24.05
2024-05-09T21:13:02.604Z,24.06
2024-05-09T21:15:30.157Z,23.81
2024-05-09T21:17:56.994Z,23.83
2024-05-09T21:20:30.505Z,24.01
2024-05-09T21:22:59.125Z,23.97
2024-05-09T21:25:25.991Z,23.96
2024-05-09T21:27:53.052Z,24.03
2024-05-09T21:30:31.476Z,23.86
2024-05-09T21:33:08.264Z,23.97
2024-05-09T21:35:35.319Z,24.00
2024-05-09T21:38:02.029Z,23.98
2024-05-09T21:40:34.276Z,23.98
2024-05-09T21:43:03.627Z,23.95
2024-05-09T21:45:30.616Z,23.93
2024-05-09T21:47:57.398Z,23.80
2024-05-09T21:50:31.896Z,23.70
2024-05-09T21:53:05.627Z,23.65
2024-05-09T21:55:32.334Z,23.55
2024-05-09T21:57:59.120Z,23.58
2024-05-09T22:00:34.234Z,23.47
2024-05-09T22:03:04.878Z,23.16
2024-05-09T22:05:32.001Z,23.22
2024-05-09T22:07:59.120Z,23.13
2024-05-09T22:10:31.121Z,23.16
2024-05-09T22:13:01.575Z,23.37
2024-05-09T22:15:28.529Z,23.33
2024-05-09T22:17:56.665Z,23.31
2024-05-09T22:20:33.478Z,23.27
2024-05-09T22:23:04.298Z,23.20
2024-05-09T22:25:32.056Z,23.13
2024-05-09T22:28:00.196Z,23.13
2024-05-09T22:30:35.389Z,23.03
2024-05-09T22:33:10.349Z,23.00
2024-05-09T22:35:38.670Z,22.88
2024-05-09T22:38:05.817Z,22.89
2024-05-09T22:40:42.338Z,22.79
2024-05-09T22:43:17.442Z,22.81
2024-05-09T22:45:44.580Z,22.76
2024-05-09T22:48:11.572Z,22.67
2024-05-09T22:50:38.403Z,22.66
2024-05-09T22:53:05.567Z,22.61
2024-05-09T22:55:32.592Z,22.55
2024-05-09T22:57:59.433Z,22.51
2024-05-09T23:00:31.304Z,22.42
2024-05-09T23:03:02.718Z,22.38
2024-05-09T23:05:31.856Z,22.31
2024-05-09T23:07:58.781Z,22.27
2024-05-09T23:10:32.338Z,22.24
2024-05-09T23:13:03.777Z,22.19
2024-05-09T23:15:30.981Z,22.17
2024-05-09T23:17:58.560Z,22.09
2024-05-09T23:20:35.848Z,22.08
2024-05-09T23:23:10.463Z,22.13
2024-05-09T23:25:38.785Z,22.07
2024-05-09T23:28:06.158Z,22.01
2024-05-09T23:30:37.932Z,21.99
2024-05-09T23:33:08.246Z,21.97
2024-05-09T23:35:35.400Z,22.00
2024-05-09T23:38:02.112Z,22.09
2024-05-09T23:40:38.114Z,22.08
2024-05-09T23:43:11.639Z,22.15
2024-05-09T23:45:39.238Z,22.09
2024-05-09T23:48:06.572Z,22.06
2024-05-09T23:50:36.792Z,22.07
2024-05-09T23:53:07.816Z,22.11
2024-05-09T23:55:35.716Z,22.11
2024-05-09T23:58:02.516Z,22.17
